sensor_id;sensor_type;location;lat;lon;timestamp;P1;durP1;ratioP1;P2;durP2;ratioP2
17790;SDS011;9019;48.132;-1.210;2023-04-06T00:00:39;33.20;;;22.97;;
17790;SDS011;9019;48.132;-1.210;2023-04-06T00:03:06;35.83;;;22.63;;
17790;SDS011;9019;48.132;-1.210;2023-04-06T00:05:34;32.10;;;22.80;;
17790;SDS011;9019;48.132;-1.210;2023-04-06T00:08:01;31.30;;;22.33;;
17790;SDS011;9019;48.132;-1.210;2023-04-06T00:10:28;35.30;;;23.47;;
17790;SDS011;9019;48.132;-1.210;2023-04-06T00:12:55;34.03;;;22.97;;
17790;SDS011;9019;48.132;-1.210;2023-04-06T00:15:24;32.10;;;22.60;;
17790;SDS011;9019;48.132;-1.210;2023-04-06T00:17:51;32.73;;;23.10;;
17790;SDS011;9019;48.132;-1.210;2023-04-06T00:20:19;33.83;;;22.77;;
17790;SDS011;9019;48.132;-1.210;2023-04-06T00:22:46;34.93;;;23.57;;
17790;SDS011;9019;48.132;-1.210;2023-04-06T00:25:13;35.80;;;23.07;;
17790;SDS011;9019;48.132;-1.210;2023-04-06T00:27:41;34.03;;;23.10;;
17790;SDS011;9019;48.132;-1.210;2023-04-06T00:30:08;37.00;;;23.83;;
17790;SDS011;9019;48.132;-1.210;2023-04-06T00:32:37;32.07;;;22.40;;
17790;SDS011;9019;48.132;-1.210;2023-04-06T00:35:05;35.10;;;23.27;;
17790;SDS011;9019;48.132;-1.210;2023-04-06T00:37:32;34.23;;;22.97;;
17790;SDS011;9019;48.132;-1.210;2023-04-06T00:39:59;33.93;;;23.90;;
17790;SDS011;9019;48.132;-1.210;2023-04-06T00:42:27;29.67;;;21.90;;
17790;SDS011;9019;48.132;-1.210;2023-04-06T00:44:55;35.70;;;24.33;;
17790;SDS011;9019;48.132;-1.210;2023-04-06T00:47:23;34.77;;;22.90;;
17790;SDS011;9019;48.132;-1.210;2023-04-06T00:49:52;33.80;;;22.67;;
17790;SDS011;9019;48.132;-1.210;2023-04-06T00:52:19;33.13;;;23.60;;
17790;SDS011;9019;48.132;-1.210;2023-04-06T00:54:47;34.20;;;22.90;;
17790;SDS011;9019;48.132;-1.210;2023-04-06T00:57:14;35.77;;;23.63;;
17790;SDS011;9019;48.132;-1.210;2023-04-06T00:59:41;33.33;;;22.23;;
17790;SDS011;9019;48.132;-1.210;2023-04-06T01:02:09;31.53;;;21.53;;
17790;SDS011;9019;48.132;-1.210;2023-04-06T01:04:36;34.10;;;22.90;;
17790;SDS011;9019;48.132;-1.210;2023-04-06T01:07:05;33.50;;;22.77;;
17790;SDS011;9019;48.132;-1.210;2023-04-06T01:09:32;34.23;;;23.33;;
17790;SDS011;9019;48.132;-1.210;2023-04-06T01:11:59;33.07;;;23.43;;
17790;SDS011;9019;48.132;-1.210;2023-04-06T01:14:27;37.13;;;24.13;;
17790;SDS011;9019;48.132;-1.210;2023-04-06T01:16:57;35.93;;;24.07;;
17790;SDS011;9019;48.132;-1.210;2023-04-06T01:19:24;33.93;;;22.57;;
17790;SDS011;9019;48.132;-1.210;2023-04-06T01:21:52;34.40;;;22.87;;
17790;SDS011;9019;48.132;-1.210;2023-04-06T01:24:20;30.67;;;21.83;;
17790;SDS011;9019;48.132;-1.210;2023-04-06T01:26:48;32.57;;;22.93;;
17790;SDS011;9019;48.132;-1.210;2023-04-06T01:29:15;33.57;;;23.13;;
17790;SDS011;9019;48.132;-1.210;2023-04-06T01:31:42;36.63;;;23.60;;
17790;SDS011;9019;48.132;-1.210;2023-04-06T01:34:10;34.43;;;23.23;;
17790;SDS011;9019;48.132;-1.210;2023-04-06T01:36:37;34.40;;;23.37;;
17790;SDS011;9019;48.132;-1.210;2023-04-06T01:39:04;32.80;;;23.77;;
17790;SDS011;9019;48.132;-1.210;2023-04-06T01:41:33;34.87;;;23.87;;
17790;SDS011;9019;48.132;-1.210;2023-04-06T01:44:00;36.20;;;23.90;;
17790;SDS011;9019;48.132;-1.210;2023-04-06T01:46:28;34.20;;;23.27;;
17790;SDS011;9019;48.132;-1.210;2023-04-06T01:48:55;36.23;;;24.70;;
17790;SDS011;9019;48.132;-1.210;2023-04-06T01:51:22;37.17;;;24.07;;
17790;SDS011;9019;48.132;-1.210;2023-04-06T01:53:50;37.07;;;24.23;;
17790;SDS011;9019;48.132;-1.210;2023-04-06T01:56:18;33.63;;;23.57;;
17790;SDS011;9019;48.132;-1.210;2023-04-06T01:58:46;33.50;;;22.97;;
17790;SDS011;9019;48.132;-1.210;2023-04-06T02:01:13;33.70;;;23.67;;
17790;SDS011;9019;48.132;-1.210;2023-04-06T02:03:41;33.57;;;22.80;;
17790;SDS011;9019;48.132;-1.210;2023-04-06T02:06:08;38.17;;;24.50;;
17790;SDS011;9019;48.132;-1.210;2023-04-06T02:08:35;36.03;;;24.13;;
17790;SDS011;9019;48.132;-1.210;2023-04-06T02:11:02;33.37;;;23.50;;
17790;SDS011;9019;48.132;-1.210;2023-04-06T02:13:30;37.20;;;24.67;;
17790;SDS011;9019;48.132;-1.210;2023-04-06T02:16:01;35.03;;;24.07;;
17790;SDS011;9019;48.132;-1.210;2023-04-06T02:18:29;35.77;;;23.87;;
17790;SDS011;9019;48.132;-1.210;2023-04-06T02:20:56;36.40;;;24.30;;
17790;SDS011;9019;48.132;-1.210;2023-04-06T02:23:23;35.07;;;23.07;;
17790;SDS011;9019;48.132;-1.210;2023-04-06T02:25:51;37.00;;;23.80;;
17790;SDS011;9019;48.132;-1.210;2023-04-06T02:28:19;36.90;;;24.23;;
17790;SDS011;9019;48.132;-1.210;2023-04-06T02:30:46;34.57;;;23.07;;
17790;SDS011;9019;48.132;-1.210;2023-04-06T02:33:14;35.90;;;22.80;;
17790;SDS011;9019;48.132;-1.210;2023-04-06T02:35:43;35.50;;;23.70;;
17790;SDS011;9019;48.132;-1.210;2023-04-06T02:38:11;33.87;;;23.17;;
17790;SDS011;9019;48.132;-1.210;2023-04-06T02:40:38;32.77;;;22.70;;
17790;SDS011;9019;48.132;-1.210;2023-04-06T02:43:05;34.27;;;23.73;;
17790;SDS011;9019;48.132;-1.210;2023-04-06T02:45:33;35.23;;;23.53;;
17790;SDS011;9019;48.132;-1.210;2023-04-06T02:48:00;32.50;;;23.10;;
17790;SDS011;9019;48.132;-1.210;2023-04-06T02:50:29;35.07;;;23.77;;
17790;SDS011;9019;48.132;-1.210;2023-04-06T02:52:56;38.33;;;24.53;;
17790;SDS011;9019;48.132;-1.210;2023-04-06T02:55:23;38.27;;;24.53;;
17790;SDS011;9019;48.132;-1.210;2023-04-06T02:57:50;34.53;;;23.37;;
17790;SDS011;9019;48.132;-1.210;2023-04-06T03:00:18;34.03;;;24.23;;
17790;SDS011;9019;48.132;-1.210;2023-04-06T03:02:46;35.00;;;24.13;;
17790;SDS011;9019;48.132;-1.210;2023-04-06T03:05:13;37.13;;;24.63;;
17790;SDS011;9019;48.132;-1.210;2023-04-06T03:07:42;34.97;;;23.70;;
17790;SDS011;9019;48.132;-1.210;2023-04-06T03:10:09;35.50;;;24.50;;
17790;SDS011;9019;48.132;-1.210;2023-04-06T03:12:36;36.00;;;24.33;;
17790;SDS011;9019;48.132;-1.210;2023-04-06T03:15:04;36.23;;;23.90;;
17790;SDS011;9019;48.132;-1.210;2023-04-06T03:17:32;36.20;;;23.63;;
17790;SDS011;9019;48.132;-1.210;2023-04-06T03:19:59;39.87;;;25.03;;
17790;SDS011;9019;48.132;-1.210;2023-04-06T03:22:26;34.57;;;24.47;;
17790;SDS011;9019;48.132;-1.210;2023-04-06T03:24:55;35.83;;;24.63;;
17790;SDS011;9019;48.132;-1.210;2023-04-06T03:27:22;35.47;;;23.83;;
17790;SDS011;9019;48.132;-1.210;2023-04-06T03:29:49;35.20;;;23.40;;
17790;SDS011;9019;48.132;-1.210;2023-04-06T03:32:16;36.93;;;23.50;;
17790;SDS011;9019;48.132;-1.210;2023-04-06T03:34:44;31.10;;;23.10;;
17790;SDS011;9019;48.132;-1.210;2023-04-06T03:37:11;34.67;;;23.73;;
17790;SDS011;9019;48.132;-1.210;2023-04-06T03:39:38;33.47;;;22.87;;
17790;SDS011;9019;48.132;-1.210;2023-04-06T03:42:07;32.53;;;22.47;;
17790;SDS011;9019;48.132;-1.210;2023-04-06T03:44:34;35.40;;;23.73;;
17790;SDS011;9019;48.132;-1.210;2023-04-06T03:47:02;31.50;;;22.70;;
17790;SDS011;9019;48.132;-1.210;2023-04-06T03:49:29;33.00;;;22.90;;
17790;SDS011;9019;48.132;-1.210;2023-04-06T03:51:56;32.50;;;22.53;;
17790;SDS011;9019;48.132;-1.210;2023-04-06T03:54:23;31.47;;;21.83;;
17790;SDS011;9019;48.132;-1.210;2023-04-06T03:56:51;33.53;;;22.40;;
17790;SDS011;9019;48.132;-1.210;2023-04-06T03:59:19;33.63;;;22.43;;
17790;SDS011;9019;48.132;-1.210;2023-04-06T04:01:46;35.53;;;21.73;;
17790;SDS011;9019;48.132;-1.210;2023-04-06T04:04:14;30.93;;;21.00;;
17790;SDS011;9019;48.132;-1.210;2023-04-06T04:06:41;31.27;;;21.77;;
17790;SDS011;9019;48.132;-1.210;2023-04-06T04:09:08;32.27;;;21.60;;
17790;SDS011;9019;48.132;-1.210;2023-04-06T04:11:35;31.17;;;21.70;;
17790;SDS011;9019;48.132;-1.210;2023-04-06T04:14:03;30.60;;;22.10;;
17790;SDS011;9019;48.132;-1.210;2023-04-06T04:16:31;33.70;;;22.40;;
17790;SDS011;9019;48.132;-1.210;2023-04-06T04:18:59;30.13;;;21.50;;
17790;SDS011;9019;48.132;-1.210;2023-04-06T04:21:29;32.03;;;20.63;;
17790;SDS011;9019;48.132;-1.210;2023-04-06T04:23:56;31.20;;;20.43;;
17790;SDS011;9019;48.132;-1.210;2023-04-06T04:26:24;32.70;;;21.40;;
17790;SDS011;9019;48.132;-1.210;2023-04-06T04:28:51;28.67;;;21.13;;
17790;SDS011;9019;48.132;-1.210;2023-04-06T04:31:18;29.50;;;20.77;;
17790;SDS011;9019;48.132;-1.210;2023-04-06T04:33:48;32.80;;;21.33;;
17790;SDS011;9019;48.132;-1.210;2023-04-06T04:36:16;29.33;;;20.17;;
17790;SDS011;9019;48.132;-1.210;2023-04-06T04:38:43;29.77;;;20.33;;
17790;SDS011;9019;48.132;-1.210;2023-04-06T04:41:10;31.60;;;21.73;;
17790;SDS011;9019;48.132;-1.210;2023-04-06T04:43:37;30.50;;;20.53;;
17790;SDS011;9019;48.132;-1.210;2023-04-06T04:46:05;28.73;;;20.57;;
17790;SDS011;9019;48.132;-1.210;2023-04-06T04:48:32;30.30;;;21.13;;
17790;SDS011;9019;48.132;-1.210;2023-04-06T04:51:01;27.80;;;19.60;;
17790;SDS011;9019;48.132;-1.210;2023-04-06T04:53:28;30.23;;;21.37;;
17790;SDS011;9019;48.132;-1.210;2023-04-06T04:55:55;27.47;;;20.43;;
17790;SDS011;9019;48.132;-1.210;2023-04-06T04:58:23;30.63;;;20.67;;
17790;SDS011;9019;48.132;-1.210;2023-04-06T05:00:50;27.73;;;19.47;;
17790;SDS011;9019;48.132;-1.210;2023-04-06T05:03:18;25.70;;;19.27;;
17790;SDS011;9019;48.132;-1.210;2023-04-06T05:05:46;26.17;;;18.20;;
17790;SDS011;9019;48.132;-1.210;2023-04-06T05:08:15;26.97;;;18.17;;
17790;SDS011;9019;48.132;-1.210;2023-04-06T05:10:42;26.07;;;19.40;;
17790;SDS011;9019;48.132;-1.210;2023-04-06T05:13:10;25.90;;;18.07;;
17790;SDS011;9019;48.132;-1.210;2023-04-06T05:15:37;29.10;;;19.00;;
17790;SDS011;9019;48.132;-1.210;2023-04-06T05:18:05;26.37;;;18.60;;
17790;SDS011;9019;48.132;-1.210;2023-04-06T05:20:32;27.27;;;17.97;;
17790;SDS011;9019;48.132;-1.210;2023-04-06T05:23:00;23.63;;;17.40;;
17790;SDS011;9019;48.132;-1.210;2023-04-06T05:25:28;27.30;;;18.67;;
17790;SDS011;9019;48.132;-1.210;2023-04-06T05:27:55;26.37;;;18.17;;
17790;SDS011;9019;48.132;-1.210;2023-04-06T05:30:23;26.00;;;17.53;;
17790;SDS011;9019;48.132;-1.210;2023-04-06T05:32:50;25.23;;;17.30;;
17790;SDS011;9019;48.132;-1.210;2023-04-06T05:35:17;25.67;;;18.23;;
17790;SDS011;9019;48.132;-1.210;2023-04-06T05:37:45;27.10;;;17.97;;
17790;SDS011;9019;48.132;-1.210;2023-04-06T05:40:12;22.93;;;17.37;;
17790;SDS011;9019;48.132;-1.210;2023-04-06T05:42:42;26.63;;;17.87;;
17790;SDS011;9019;48.132;-1.210;2023-04-06T05:45:09;24.97;;;17.53;;
17790;SDS011;9019;48.132;-1.210;2023-04-06T05:47:41;25.80;;;18.17;;
17790;SDS011;9019;48.132;-1.210;2023-04-06T05:50:08;24.03;;;17.93;;
17790;SDS011;9019;48.132;-1.210;2023-04-06T05:52:36;25.70;;;17.33;;
17790;SDS011;9019;48.132;-1.210;2023-04-06T05:55:03;24.10;;;17.87;;
17790;SDS011;9019;48.132;-1.210;2023-04-06T05:57:31;25.33;;;18.10;;
17790;SDS011;9019;48.132;-1.210;2023-04-06T05:59:59;27.57;;;18.13;;
17790;SDS011;9019;48.132;-1.210;2023-04-06T06:02:30;28.33;;;20.40;;
17790;SDS011;9019;48.132;-1.210;2023-04-06T06:04:57;25.40;;;18.53;;
17790;SDS011;9019;48.132;-1.210;2023-04-06T06:07:24;29.17;;;19.10;;
17790;SDS011;9019;48.132;-1.210;2023-04-06T06:09:52;25.57;;;18.40;;
17790;SDS011;9019;48.132;-1.210;2023-04-06T06:12:19;25.80;;;19.00;;
17790;SDS011;9019;48.132;-1.210;2023-04-06T06:14:46;25.80;;;18.20;;
17790;SDS011;9019;48.132;-1.210;2023-04-06T06:17:15;28.77;;;18.57;;
17790;SDS011;9019;48.132;-1.210;2023-04-06T06:19:42;24.70;;;16.93;;
17790;SDS011;9019;48.132;-1.210;2023-04-06T06:22:09;26.27;;;17.70;;
17790;SDS011;9019;48.132;-1.210;2023-04-06T06:24:36;24.47;;;17.43;;
17790;SDS011;9019;48.132;-1.210;2023-04-06T06:27:04;24.97;;;17.53;;
17790;SDS011;9019;48.132;-1.210;2023-04-06T06:29:32;27.13;;;18.43;;
17790;SDS011;9019;48.132;-1.210;2023-04-06T06:32:00;26.37;;;18.57;;
17790;SDS011;9019;48.132;-1.210;2023-04-06T06:34:28;23.87;;;17.70;;
17790;SDS011;9019;48.132;-1.210;2023-04-06T06:36:56;26.53;;;17.30;;
17790;SDS011;9019;48.132;-1.210;2023-04-06T06:39:23;25.53;;;17.00;;
17790;SDS011;9019;48.132;-1.210;2023-04-06T06:41:50;22.93;;;17.77;;
17790;SDS011;9019;48.132;-1.210;2023-04-06T06:44:19;23.63;;;16.83;;
17790;SDS011;9019;48.132;-1.210;2023-04-06T06:46:46;23.93;;;16.50;;
17790;SDS011;9019;48.132;-1.210;2023-04-06T06:49:13;25.97;;;16.37;;
17790;SDS011;9019;48.132;-1.210;2023-04-06T06:51:42;23.80;;;15.67;;
17790;SDS011;9019;48.132;-1.210;2023-04-06T06:54:10;25.00;;;16.37;;
17790;SDS011;9019;48.132;-1.210;2023-04-06T06:56:38;22.43;;;16.20;;
17790;SDS011;9019;48.132;-1.210;2023-04-06T06:59:05;21.13;;;16.30;;
17790;SDS011;9019;48.132;-1.210;2023-04-06T07:01:32;21.63;;;15.20;;
17790;SDS011;9019;48.132;-1.210;2023-04-06T07:04:00;23.20;;;16.10;;
17790;SDS011;9019;48.132;-1.210;2023-04-06T07:06:27;20.63;;;15.10;;
17790;SDS011;9019;48.132;-1.210;2023-04-06T07:08:56;21.37;;;14.30;;
17790;SDS011;9019;48.132;-1.210;2023-04-06T07:11:23;21.17;;;14.70;;
17790;SDS011;9019;48.132;-1.210;2023-04-06T07:13:51;19.83;;;13.90;;
17790;SDS011;9019;48.132;-1.210;2023-04-06T07:16:18;21.60;;;14.13;;
17790;SDS011;9019;48.132;-1.210;2023-04-06T07:18:45;17.70;;;13.33;;
17790;SDS011;9019;48.132;-1.210;2023-04-06T07:21:12;16.97;;;13.30;;
17790;SDS011;9019;48.132;-1.210;2023-04-06T07:23:40;17.67;;;12.93;;
17790;SDS011;9019;48.132;-1.210;2023-04-06T07:26:08;15.57;;;13.37;;
17790;SDS011;9019;48.132;-1.210;2023-04-06T07:28:36;16.93;;;12.60;;
17790;SDS011;9019;48.132;-1.210;2023-04-06T07:31:03;16.50;;;12.23;;
17790;SDS011;9019;48.132;-1.210;2023-04-06T07:33:30;17.57;;;13.03;;
17790;SDS011;9019;48.132;-1.210;2023-04-06T07:35:57;16.93;;;12.90;;
17790;SDS011;9019;48.132;-1.210;2023-04-06T07:38:24;16.93;;;12.30;;
17790;SDS011;9019;48.132;-1.210;2023-04-06T07:40:52;17.10;;;12.10;;
17790;SDS011;9019;48.132;-1.210;2023-04-06T07:43:20;15.53;;;11.73;;
17790;SDS011;9019;48.132;-1.210;2023-04-06T07:45:48;16.67;;;11.47;;
17790;SDS011;9019;48.132;-1.210;2023-04-06T07:48:15;17.70;;;12.93;;
17790;SDS011;9019;48.132;-1.210;2023-04-06T07:50:42;16.70;;;12.33;;
17790;SDS011;9019;48.132;-1.210;2023-04-06T07:53:09;18.00;;;12.37;;
17790;SDS011;9019;48.132;-1.210;2023-04-06T07:55:37;15.67;;;11.33;;
17790;SDS011;9019;48.132;-1.210;2023-04-06T07:58:04;16.13;;;12.57;;
17790;SDS011;9019;48.132;-1.210;2023-04-06T08:00:33;15.43;;;11.50;;
17790;SDS011;9019;48.132;-1.210;2023-04-06T08:03:00;15.73;;;11.63;;
17790;SDS011;9019;48.132;-1.210;2023-04-06T08:05:27;16.33;;;11.57;;
17790;SDS011;9019;48.132;-1.210;2023-04-06T08:07:54;17.23;;;11.43;;
17790;SDS011;9019;48.132;-1.210;2023-04-06T08:10:22;13.77;;;11.17;;
17790;SDS011;9019;48.132;-1.210;2023-04-06T08:12:49;14.47;;;11.67;;
17790;SDS011;9019;48.132;-1.210;2023-04-06T08:15:16;14.10;;;11.83;;
17790;SDS011;9019;48.132;-1.210;2023-04-06T08:17:45;14.27;;;11.97;;
17790;SDS011;9019;48.132;-1.210;2023-04-06T08:20:13;13.43;;;10.67;;
17790;SDS011;9019;48.132;-1.210;2023-04-06T08:22:40;12.07;;;10.53;;
17790;SDS011;9019;48.132;-1.210;2023-04-06T08:25:07;15.27;;;10.83;;
17790;SDS011;9019;48.132;-1.210;2023-04-06T08:27:34;13.93;;;10.60;;
17790;SDS011;9019;48.132;-1.210;2023-04-06T08:30:02;15.97;;;11.23;;
17790;SDS011;9019;48.132;-1.210;2023-04-06T08:32:29;15.73;;;10.90;;
17790;SDS011;9019;48.132;-1.210;2023-04-06T08:34:58;15.30;;;10.87;;
17790;SDS011;9019;48.132;-1.210;2023-04-06T08:37:25;14.60;;;11.60;;
17790;SDS011;9019;48.132;-1.210;2023-04-06T08:39:52;18.17;;;11.10;;
17790;SDS011;9019;48.132;-1.210;2023-04-06T08:42:20;16.70;;;11.37;;
17790;SDS011;9019;48.132;-1.210;2023-04-06T08:44:48;14.97;;;11.00;;
17790;SDS011;9019;48.132;-1.210;2023-04-06T08:47:17;15.30;;;10.27;;
17790;SDS011;9019;48.132;-1.210;2023-04-06T08:49:44;12.63;;;9.77;;
17790;SDS011;9019;48.132;-1.210;2023-04-06T08:52:13;11.83;;;9.83;;
17790;SDS011;9019;48.132;-1.210;2023-04-06T08:54:42;14.73;;;9.77;;
17790;SDS011;9019;48.132;-1.210;2023-04-06T08:57:09;11.00;;;9.83;;
17790;SDS011;9019;48.132;-1.210;2023-04-06T08:59:37;12.40;;;9.57;;
17790;SDS011;9019;48.132;-1.210;2023-04-06T09:02:04;12.23;;;9.50;;
17790;SDS011;9019;48.132;-1.210;2023-04-06T09:04:31;12.80;;;9.17;;
17790;SDS011;9019;48.132;-1.210;2023-04-06T09:06:59;12.57;;;9.87;;
17790;SDS011;9019;48.132;-1.210;2023-04-06T09:09:28;11.97;;;9.10;;
17790;SDS011;9019;48.132;-1.210;2023-04-06T09:11:55;11.40;;;8.57;;
17790;SDS011;9019;48.132;-1.210;2023-04-06T09:14:34;10.47;;;8.17;;
17790;SDS011;9019;48.132;-1.210;2023-04-06T09:17:02;9.47;;;7.50;;
17790;SDS011;9019;48.132;-1.210;2023-04-06T09:19:29;10.23;;;8.07;;
17790;SDS011;9019;48.132;-1.210;2023-04-06T09:22:03;8.73;;;7.10;;
17790;SDS011;9019;48.132;-1.210;2023-04-06T09:24:43;12.90;;;8.03;;
17790;SDS011;9019;48.132;-1.210;2023-04-06T09:27:10;9.23;;;7.93;;
17790;SDS011;9019;48.132;-1.210;2023-04-06T09:29:37;8.63;;;7.73;;
17790;SDS011;9019;48.132;-1.210;2023-04-06T09:32:05;9.17;;;7.90;;
17790;SDS011;9019;48.132;-1.210;2023-04-06T09:34:33;9.07;;;7.53;;
17790;SDS011;9019;48.132;-1.210;2023-04-06T09:37:00;11.63;;;8.80;;
17790;SDS011;9019;48.132;-1.210;2023-04-06T09:39:27;11.07;;;8.07;;
17790;SDS011;9019;48.132;-1.210;2023-04-06T09:41:57;10.13;;;8.10;;
17790;SDS011;9019;48.132;-1.210;2023-04-06T09:44:25;11.87;;;8.43;;
17790;SDS011;9019;48.132;-1.210;2023-04-06T09:46:53;9.97;;;8.73;;
17790;SDS011;9019;48.132;-1.210;2023-04-06T09:49:20;10.70;;;8.20;;
17790;SDS011;9019;48.132;-1.210;2023-04-06T09:51:49;10.57;;;8.73;;
17790;SDS011;9019;48.132;-1.210;2023-04-06T09:54:21;10.53;;;8.53;;
17790;SDS011;9019;48.132;-1.210;2023-04-06T09:56:50;10.97;;;8.80;;
17790;SDS011;9019;48.132;-1.210;2023-04-06T09:59:20;10.17;;;9.07;;
17790;SDS011;9019;48.132;-1.210;2023-04-06T10:01:48;11.77;;;8.37;;
17790;SDS011;9019;48.132;-1.210;2023-04-06T10:04:21;9.67;;;8.67;;
17790;SDS011;9019;48.132;-1.210;2023-04-06T10:06:54;12.10;;;9.43;;
17790;SDS011;9019;48.132;-1.210;2023-04-06T10:09:24;12.70;;;9.50;;
17790;SDS011;9019;48.132;-1.210;2023-04-06T10:11:51;10.20;;;8.80;;
17790;SDS011;9019;48.132;-1.210;2023-04-06T10:14:20;9.80;;;8.80;;
17790;SDS011;9019;48.132;-1.210;2023-04-06T10:16:48;10.33;;;8.23;;
17790;SDS011;9019;48.132;-1.210;2023-04-06T10:19:17;9.53;;;8.47;;
17790;SDS011;9019;48.132;-1.210;2023-04-06T10:21:45;8.97;;;7.93;;
17790;SDS011;9019;48.132;-1.210;2023-04-06T10:24:15;9.00;;;6.80;;
17790;SDS011;9019;48.132;-1.210;2023-04-06T10:26:43;9.57;;;6.57;;
17790;SDS011;9019;48.132;-1.210;2023-04-06T10:29:10;8.27;;;6.27;;
17790;SDS011;9019;48.132;-1.210;2023-04-06T10:31:42;8.87;;;6.10;;
17790;SDS011;9019;48.132;-1.210;2023-04-06T10:34:10;6.13;;;4.77;;
17790;SDS011;9019;48.132;-1.210;2023-04-06T10:36:37;6.83;;;5.40;;
17790;SDS011;9019;48.132;-1.210;2023-04-06T10:39:05;6.17;;;4.93;;
17790;SDS011;9019;48.132;-1.210;2023-04-06T10:41:33;6.63;;;5.40;;
17790;SDS011;9019;48.132;-1.210;2023-04-06T10:44:00;7.30;;;4.40;;
17790;SDS011;9019;48.132;-1.210;2023-04-06T10:46:28;4.97;;;4.37;;
17790;SDS011;9019;48.132;-1.210;2023-04-06T10:48:57;5.90;;;4.70;;
17790;SDS011;9019;48.132;-1.210;2023-04-06T10:51:26;5.33;;;3.40;;
17790;SDS011;9019;48.132;-1.210;2023-04-06T10:53:54;4.40;;;3.30;;
17790;SDS011;9019;48.132;-1.210;2023-04-06T10:56:22;3.83;;;3.10;;
17790;SDS011;9019;48.132;-1.210;2023-04-06T10:58:52;4.10;;;2.70;;
17790;SDS011;9019;48.132;-1.210;2023-04-06T11:01:21;2.72;;;2.50;;
17790;SDS011;9019;48.132;-1.210;2023-04-06T11:03:51;4.05;;;2.33;;
17790;SDS011;9019;48.132;-1.210;2023-04-06T11:06:20;2.97;;;1.70;;
17790;SDS011;9019;48.132;-1.210;2023-04-06T11:08:48;2.72;;;1.42;;
17790;SDS011;9019;48.132;-1.210;2023-04-06T11:11:16;3.22;;;1.80;;
17790;SDS011;9019;48.132;-1.210;2023-04-06T11:13:44;3.90;;;1.67;;
17790;SDS011;9019;48.132;-1.210;2023-04-06T11:16:12;3.40;;;1.92;;
17790;SDS011;9019;48.132;-1.210;2023-04-06T11:18:49;3.90;;;2.30;;
17790;SDS011;9019;48.132;-1.210;2023-04-06T11:21:17;3.28;;;2.00;;
17790;SDS011;9019;48.132;-1.210;2023-04-06T11:23:45;3.58;;;1.60;;
17790;SDS011;9019;48.132;-1.210;2023-04-06T11:26:13;3.00;;;1.80;;
17790;SDS011;9019;48.132;-1.210;2023-04-06T11:28:40;3.92;;;1.70;;
17790;SDS011;9019;48.132;-1.210;2023-04-06T11:31:08;3.55;;;1.90;;
17790;SDS011;9019;48.132;-1.210;2023-04-06T11:33:36;4.63;;;1.67;;
17790;SDS011;9019;48.132;-1.210;2023-04-06T11:36:04;3.05;;;1.60;;
17790;SDS011;9019;48.132;-1.210;2023-04-06T11:38:31;3.58;;;2.03;;
17790;SDS011;9019;48.132;-1.210;2023-04-06T11:41:01;2.95;;;1.75;;
17790;SDS011;9019;48.132;-1.210;2023-04-06T11:43:29;4.35;;;2.15;;
17790;SDS011;9019;48.132;-1.210;2023-04-06T11:45:59;3.22;;;1.60;;
17790;SDS011;9019;48.132;-1.210;2023-04-06T11:48:27;2.70;;;1.77;;
17790;SDS011;9019;48.132;-1.210;2023-04-06T11:50:55;4.05;;;1.70;;
17790;SDS011;9019;48.132;-1.210;2023-04-06T11:53:23;4.60;;;2.00;;
17790;SDS011;9019;48.132;-1.210;2023-04-06T11:55:51;4.57;;;1.70;;
17790;SDS011;9019;48.132;-1.210;2023-04-06T11:58:19;3.33;;;1.30;;
17790;SDS011;9019;48.132;-1.210;2023-04-06T12:00:46;2.90;;;1.70;;
17790;SDS011;9019;48.132;-1.210;2023-04-06T12:03:14;4.25;;;1.50;;
17790;SDS011;9019;48.132;-1.210;2023-04-06T12:05:41;4.25;;;1.70;;
17790;SDS011;9019;48.132;-1.210;2023-04-06T12:08:08;4.32;;;1.70;;
17790;SDS011;9019;48.132;-1.210;2023-04-06T12:10:35;5.20;;;1.50;;
17790;SDS011;9019;48.132;-1.210;2023-04-06T12:13:03;2.95;;;1.42;;
17790;SDS011;9019;48.132;-1.210;2023-04-06T12:15:32;2.10;;;1.27;;
17790;SDS011;9019;48.132;-1.210;2023-04-06T12:17:59;3.70;;;1.40;;
17790;SDS011;9019;48.132;-1.210;2023-04-06T12:20:26;6.25;;;1.90;;
17790;SDS011;9019;48.132;-1.210;2023-04-06T12:22:54;3.38;;;1.35;;
17790;SDS011;9019;48.132;-1.210;2023-04-06T12:25:21;3.60;;;1.52;;
17790;SDS011;9019;48.132;-1.210;2023-04-06T12:27:48;3.85;;;1.17;;
17790;SDS011;9019;48.132;-1.210;2023-04-06T12:30:15;5.07;;;1.80;;
17790;SDS011;9019;48.132;-1.210;2023-04-06T12:32:44;1.95;;;1.20;;
17790;SDS011;9019;48.132;-1.210;2023-04-06T12:35:11;3.38;;;1.60;;
17790;SDS011;9019;48.132;-1.210;2023-04-06T12:37:40;5.40;;;1.45;;
17790;SDS011;9019;48.132;-1.210;2023-04-06T12:40:08;5.35;;;2.88;;
17790;SDS011;9019;48.132;-1.210;2023-04-06T12:42:38;3.15;;;1.42;;
17790;SDS011;9019;48.132;-1.210;2023-04-06T12:45:06;2.25;;;1.20;;
17790;SDS011;9019;48.132;-1.210;2023-04-06T12:47:33;6.72;;;1.98;;
17790;SDS011;9019;48.132;-1.210;2023-04-06T12:50:04;5.18;;;1.42;;
17790;SDS011;9019;48.132;-1.210;2023-04-06T12:52:32;4.22;;;1.10;;
17790;SDS011;9019;48.132;-1.210;2023-04-06T12:55:00;2.05;;;1.10;;
17790;SDS011;9019;48.132;-1.210;2023-04-06T12:57:27;3.60;;;1.47;;
17790;SDS011;9019;48.132;-1.210;2023-04-06T12:59:56;2.25;;;1.15;;
17790;SDS011;9019;48.132;-1.210;2023-04-06T13:02:23;5.25;;;1.50;;
17790;SDS011;9019;48.132;-1.210;2023-04-06T13:04:51;3.90;;;1.50;;
17790;SDS011;9019;48.132;-1.210;2023-04-06T13:07:19;3.72;;;1.65;;
17790;SDS011;9019;48.132;-1.210;2023-04-06T13:09:46;4.17;;;2.10;;
17790;SDS011;9019;48.132;-1.210;2023-04-06T13:12:14;4.60;;;1.87;;
17790;SDS011;9019;48.132;-1.210;2023-04-06T13:14:42;3.50;;;1.93;;
17790;SDS011;9019;48.132;-1.210;2023-04-06T13:17:09;4.10;;;2.03;;
17790;SDS011;9019;48.132;-1.210;2023-04-06T13:19:36;4.27;;;2.10;;
17790;SDS011;9019;48.132;-1.210;2023-04-06T13:22:05;3.83;;;2.20;;
17790;SDS011;9019;48.132;-1.210;2023-04-06T13:24:33;4.27;;;1.80;;
17790;SDS011;9019;48.132;-1.210;2023-04-06T13:27:03;4.67;;;1.70;;
17790;SDS011;9019;48.132;-1.210;2023-04-06T13:29:31;3.50;;;1.53;;
17790;SDS011;9019;48.132;-1.210;2023-04-06T13:31:59;3.23;;;1.30;;
17790;SDS011;9019;48.132;-1.210;2023-04-06T13:34:26;3.60;;;2.00;;
17790;SDS011;9019;48.132;-1.210;2023-04-06T13:36:53;6.67;;;2.57;;
17790;SDS011;9019;48.132;-1.210;2023-04-06T13:39:20;4.30;;;2.53;;
17790;SDS011;9019;48.132;-1.210;2023-04-06T13:41:49;6.00;;;3.00;;
17790;SDS011;9019;48.132;-1.210;2023-04-06T13:44:16;6.30;;;3.20;;
17790;SDS011;9019;48.132;-1.210;2023-04-06T13:46:44;5.07;;;3.20;;
17790;SDS011;9019;48.132;-1.210;2023-04-06T13:49:11;5.40;;;3.23;;
17790;SDS011;9019;48.132;-1.210;2023-04-06T13:51:38;4.87;;;2.63;;
17790;SDS011;9019;48.132;-1.210;2023-04-06T13:54:06;9.07;;;2.93;;
17790;SDS011;9019;48.132;-1.210;2023-04-06T13:56:33;4.57;;;2.70;;
17790;SDS011;9019;48.132;-1.210;2023-04-06T13:59:02;5.40;;;2.90;;
17790;SDS011;9019;48.132;-1.210;2023-04-06T14:01:29;4.70;;;2.87;;
17790;SDS011;9019;48.132;-1.210;2023-04-06T14:03:56;5.97;;;2.70;;
17790;SDS011;9019;48.132;-1.210;2023-04-06T14:06:24;6.17;;;2.37;;
17790;SDS011;9019;48.132;-1.210;2023-04-06T14:08:51;3.80;;;2.20;;
17790;SDS011;9019;48.132;-1.210;2023-04-06T14:11:18;4.00;;;2.13;;
17790;SDS011;9019;48.132;-1.210;2023-04-06T14:13:45;3.35;;;2.05;;
17790;SDS011;9019;48.132;-1.210;2023-04-06T14:16:14;4.85;;;2.30;;
17790;SDS011;9019;48.132;-1.210;2023-04-06T14:18:44;4.63;;;2.13;;
17790;SDS011;9019;48.132;-1.210;2023-04-06T14:21:12;4.85;;;2.20;;
17790;SDS011;9019;48.132;-1.210;2023-04-06T14:23:40;5.43;;;2.55;;
17790;SDS011;9019;48.132;-1.210;2023-04-06T14:26:07;8.70;;;2.07;;
17790;SDS011;9019;48.132;-1.210;2023-04-06T14:28:35;3.17;;;1.47;;
17790;SDS011;9019;48.132;-1.210;2023-04-06T14:31:08;6.23;;;1.63;;
17790;SDS011;9019;48.132;-1.210;2023-04-06T14:33:37;6.60;;;1.50;;